createdAt,value
2018-12-27T00:00:37.757Z,28.60
2018-12-27T00:03:06.219Z,28.17
2018-12-27T00:05:34.745Z,28.70
2018-12-27T00:08:03.260Z,28.87
2018-12-27T00:10:31.721Z,24.87
2018-12-27T00:13:00.209Z,24.57
2018-12-27T00:15:28.870Z,25.67
2018-12-27T00:17:57.314Z,23.70
2018-12-27T00:20:25.798Z,24.70
2018-12-27T00:22:54.246Z,24.33
2018-12-27T00:25:22.704Z,25.87
2018-12-27T00:27:51.253Z,24.87
2018-12-27T00:30:19.858Z,26.40
2018-12-27T00:32:48.466Z,25.27
2018-12-27T00:35:17.173Z,24.00
2018-12-27T00:37:45.777Z,24.53
2018-12-27T00:40:14.553Z,21.43
2018-12-27T00:42:43.194Z,25.37
2018-12-27T00:45:11.902Z,22.70
2018-12-27T00:47:40.500Z,19.83
2018-12-27T00:50:09.138Z,20.53
2018-12-27T00:52:37.749Z,19.00
2018-12-27T00:55:06.353Z,21.47
2018-12-27T00:57:34.985Z,17.23
2018-12-27T01:00:04.040Z,18.13
2018-12-27T01:02:32.717Z,18.67
2018-12-27T01:05:01.374Z,19.90
2018-12-27T01:07:30.061Z,20.00
2018-12-27T01:09:58.670Z,19.63
2018-12-27T01:12:27.304Z,18.73
2018-12-27T01:14:55.904Z,16.43
2018-12-27T01:17:24.634Z,22.27
2018-12-27T01:19:53.269Z,15.50
2018-12-27T01:22:21.940Z,18.37
2018-12-27T01:24:50.973Z,17.43
2018-12-27T01:27:19.885Z,15.77
2018-12-27T01:29:48.485Z,19.67
2018-12-27T01:32:17.093Z,16.20
2018-12-27T01:34:45.733Z,19.17
2018-12-27T01:37:14.345Z,18.00
2018-12-27T01:39:43.021Z,19.13
2018-12-27T01:42:11.667Z,17.10
2018-12-27T01:44:40.277Z,18.43
2018-12-27T01:47:08.889Z,20.23
2018-12-27T01:49:37.518Z,18.83
2018-12-27T01:52:06.133Z,16.20
2018-12-27T01:54:34.737Z,22.53
2018-12-27T01:57:03.373Z,17.90
2018-12-27T01:59:31.976Z,20.00
2018-12-27T02:02:00.644Z,19.37
2018-12-27T02:04:29.277Z,20.57
2018-12-27T02:06:57.889Z,20.47
2018-12-27T02:09:26.569Z,20.60
2018-12-27T02:11:55.204Z,21.27
2018-12-27T02:14:23.813Z,25.20
2018-12-27T02:16:52.426Z,30.53
2018-12-27T02:19:21.701Z,28.63
2018-12-27T02:21:50.302Z,32.53
2018-12-27T02:24:18.910Z,30.90
2018-12-27T02:26:47.569Z,33.30
2018-12-27T02:29:16.173Z,36.53
2018-12-27T02:31:44.857Z,40.07
2018-12-27T02:34:13.485Z,32.17
2018-12-27T02:36:42.085Z,37.57
2018-12-27T02:39:10.689Z,36.90
2018-12-27T02:41:39.325Z,36.57
2018-12-27T02:44:07.933Z,38.40
2018-12-27T02:46:36.541Z,34.10
2018-12-27T02:49:05.278Z,38.40
2018-12-27T02:51:33.942Z,38.93
2018-12-27T02:54:02.545Z,40.10
2018-12-27T02:56:31.189Z,40.70
2018-12-27T02:58:59.802Z,37.03
2018-12-27T03:01:28.413Z,42.87
2018-12-27T03:03:57.038Z,43.40
2018-12-27T03:06:25.726Z,43.37
2018-12-27T03:08:54.359Z,43.37
2018-12-27T03:11:22.982Z,39.67
2018-12-27T03:13:51.594Z,42.63
2018-12-27T03:16:20.202Z,41.20
2018-12-27T03:18:48.831Z,42.53
2018-12-27T03:21:17.436Z,45.77
2018-12-27T03:23:46.033Z,45.27
2018-12-27T03:26:14.667Z,37.07
2018-12-27T03:28:43.273Z,40.43
2018-12-27T03:31:11.884Z,40.73
2018-12-27T03:33:40.889Z,40.50
2018-12-27T03:36:09.507Z,41.83
2018-12-27T03:38:38.185Z,35.80
2018-12-27T03:41:06.818Z,37.73
2018-12-27T03:43:35.420Z,34.63
2018-12-27T03:46:04.029Z,42.17
2018-12-27T03:48:32.686Z,40.53
2018-12-27T03:51:01.359Z,37.27
2018-12-27T03:53:30.043Z,39.33
2018-12-27T03:55:58.692Z,37.37
2018-12-27T03:58:27.301Z,38.03
2018-12-27T04:00:55.909Z,40.10
2018-12-27T04:03:24.545Z,38.37
2018-12-27T04:05:53.159Z,35.93
2018-12-27T04:08:21.837Z,37.97
2018-12-27T04:10:50.473Z,35.80
2018-12-27T04:13:19.081Z,34.17
2018-12-27T04:15:47.537Z,41.30
2018-12-27T04:18:16.050Z,35.70
2018-12-27T04:20:44.497Z,38.27
2018-12-27T04:23:13.105Z,42.07
2018-12-27T04:25:42.121Z,33.47
2018-12-27T04:28:10.582Z,32.77
2018-12-27T04:30:39.241Z,39.13
2018-12-27T04:33:10.800Z,35.23
2018-12-27T04:35:39.324Z,34.20
2018-12-27T04:38:07.785Z,37.60
2018-12-27T04:40:36.274Z,34.50
2018-12-27T04:43:05.157Z,35.17
2018-12-27T04:45:33.613Z,39.37
2018-12-27T04:48:02.100Z,39.80
2018-12-27T04:50:31.197Z,37.63
2018-12-27T04:52:59.657Z,34.83
2018-12-27T04:55:28.138Z,36.23
2018-12-27T04:57:56.589Z,41.00
2018-12-27T05:00:25.040Z,38.97
2018-12-27T05:02:53.527Z,54.30
2018-12-27T05:05:22.049Z,39.83
2018-12-27T05:07:50.502Z,37.37
2018-12-27T05:10:18.982Z,42.57
2018-12-27T05:12:47.437Z,45.73
2018-12-27T05:15:15.882Z,41.60
2018-12-27T05:17:44.357Z,37.83
2018-12-27T05:20:12.805Z,37.63
2018-12-27T05:22:41.261Z,36.23
2018-12-27T05:25:09.741Z,38.90
2018-12-27T05:27:38.190Z,41.30
2018-12-27T05:30:06.781Z,38.63
2018-12-27T05:32:35.261Z,35.60
2018-12-27T05:35:03.781Z,42.73
2018-12-27T05:37:32.393Z,37.30
2018-12-27T05:40:00.878Z,36.83
2018-12-27T05:42:29.323Z,37.97
2018-12-27T05:44:57.844Z,41.33
2018-12-27T05:47:26.330Z,39.60
2018-12-27T05:49:54.786Z,42.67
2018-12-27T05:52:23.302Z,41.00
2018-12-27T05:54:51.801Z,42.40
2018-12-27T05:57:20.257Z,45.53
2018-12-27T05:59:48.708Z,48.93
2018-12-27T06:02:17.185Z,38.30
2018-12-27T06:04:45.647Z,41.83
2018-12-27T06:07:14.170Z,39.60
2018-12-27T06:09:42.647Z,42.47
2018-12-27T06:12:11.089Z,51.00
2018-12-27T06:14:39.541Z,49.53
2018-12-27T06:17:08.098Z,48.77
2018-12-27T06:19:36.546Z,47.43
2018-12-27T06:22:05.081Z,47.23
2018-12-27T06:24:33.617Z,49.17
2018-12-27T06:27:02.077Z,48.13
2018-12-27T06:29:30.532Z,46.33
2018-12-27T06:31:59.019Z,43.60
2018-12-27T06:34:27.464Z,44.07
2018-12-27T06:36:55.917Z,53.57
2018-12-27T06:39:24.400Z,49.50
2018-12-27T06:41:52.865Z,46.07
2018-12-27T06:44:21.318Z,45.90
2018-12-27T06:46:49.796Z,46.03
2018-12-27T06:49:18.255Z,46.10
2018-12-27T06:51:46.701Z,49.50
2018-12-27T06:54:15.193Z,43.63
2018-12-27T06:56:43.647Z,49.37
2018-12-27T06:59:12.101Z,43.67
2018-12-27T07:01:40.582Z,44.50
2018-12-27T07:04:09.038Z,41.60
2018-12-27T07:06:37.553Z,43.73
2018-12-27T07:09:07.406Z,41.20
2018-12-27T07:11:35.922Z,43.40
2018-12-27T07:14:04.505Z,47.10
2018-12-27T07:16:32.987Z,43.67
2018-12-27T07:19:01.509Z,43.07
2018-12-27T07:21:29.957Z,46.23
2018-12-27T07:23:58.439Z,46.60
2018-12-27T07:26:26.890Z,45.07
2018-12-27T07:28:55.537Z,42.47
2018-12-27T07:31:24.010Z,43.00
2018-12-27T07:33:52.462Z,46.43
2018-12-27T07:36:20.986Z,52.00
2018-12-27T07:38:49.477Z,47.77
2018-12-27T07:41:17.930Z,47.83
2018-12-27T07:43:46.373Z,48.10
2018-12-27T07:46:14.854Z,50.27
2018-12-27T07:48:43.293Z,46.83
2018-12-27T07:51:11.741Z,51.07
2018-12-27T07:53:40.224Z,52.27
2018-12-27T07:56:08.674Z,49.23
2018-12-27T07:58:37.497Z,56.97
2018-12-27T08:01:06.058Z,59.33
2018-12-27T08:03:34.685Z,55.33
2018-12-27T08:06:03.205Z,53.47
2018-12-27T08:08:31.749Z,51.17
2018-12-27T08:11:00.229Z,57.13
2018-12-27T08:13:28.754Z,54.90
2018-12-27T08:15:57.288Z,53.33
2018-12-27T08:18:25.809Z,56.30
2018-12-27T08:20:54.326Z,54.27
2018-12-27T08:23:22.814Z,52.60
2018-12-27T08:25:51.268Z,59.73
2018-12-27T08:28:19.725Z,58.07
2018-12-27T08:30:48.207Z,55.73
2018-12-27T08:33:16.667Z,53.37
2018-12-27T08:35:45.123Z,55.67
2018-12-27T08:38:13.665Z,50.13
2018-12-27T08:40:42.122Z,50.43
2018-12-27T08:43:10.645Z,56.70
2018-12-27T08:45:39.125Z,57.97
2018-12-27T08:48:07.658Z,50.73
2018-12-27T08:50:36.113Z,50.20
2018-12-27T08:53:04.674Z,48.93
2018-12-27T08:55:33.204Z,51.27
2018-12-27T08:58:01.732Z,50.43
2018-12-27T09:00:30.348Z,49.80
2018-12-27T09:02:58.813Z,48.17
2018-12-27T09:05:27.418Z,44.40
2018-12-27T09:07:55.985Z,47.50
2018-12-27T09:10:24.503Z,48.93
2018-12-27T09:12:53.022Z,48.53
2018-12-27T09:15:21.577Z,45.80
2018-12-27T09:17:50.034Z,46.33
2018-12-27T09:20:18.489Z,44.63
2018-12-27T09:22:46.981Z,45.30
2018-12-27T09:25:15.437Z,44.37
2018-12-27T09:27:43.966Z,41.07
2018-12-27T09:30:12.546Z,44.97
2018-12-27T09:32:41.107Z,42.07
2018-12-27T09:35:10.187Z,42.67
2018-12-27T09:37:38.665Z,41.47
2018-12-27T09:40:07.189Z,45.47
2018-12-27T09:42:36.837Z,42.47
2018-12-27T09:45:07.666Z,40.23
2018-12-27T09:47:36.193Z,47.60
2018-12-27T09:50:05.417Z,53.07
2018-12-27T09:52:33.913Z,43.03
2018-12-27T09:55:02.666Z,45.87
2018-12-27T09:57:31.335Z,43.43
2018-12-27T09:59:59.997Z,40.50
2018-12-27T10:02:28.682Z,45.00
2018-12-27T10:04:57.185Z,43.17
2018-12-27T10:07:25.669Z,42.53
2018-12-27T10:09:54.132Z,47.47
2018-12-27T10:12:22.658Z,46.93
2018-12-27T10:14:51.150Z,51.70
2018-12-27T10:17:19.673Z,48.00
2018-12-27T10:19:48.126Z,47.13
2018-12-27T10:22:16.676Z,50.00
2018-12-27T10:24:45.134Z,44.80
2018-12-27T10:27:13.577Z,48.43
2018-12-27T10:29:42.130Z,46.30
2018-12-27T10:32:10.584Z,39.97
2018-12-27T10:34:39.040Z,39.60
2018-12-27T10:37:07.585Z,38.57
2018-12-27T10:39:36.037Z,48.27
2018-12-27T10:42:04.489Z,47.47
2018-12-27T10:44:32.977Z,56.17
2018-12-27T10:47:01.577Z,52.03
2018-12-27T10:49:30.095Z,48.00
2018-12-27T10:51:58.594Z,50.43
2018-12-27T10:54:27.109Z,55.93
2018-12-27T10:56:56.001Z,48.27
2018-12-27T10:59:24.489Z,50.40
2018-12-27T11:01:53.009Z,52.70
2018-12-27T11:04:21.461Z,49.50
2018-12-27T11:06:49.941Z,48.80
2018-12-27T11:09:18.473Z,41.83
2018-12-27T11:11:47.022Z,41.27
2018-12-27T11:14:15.514Z,40.33
2018-12-27T11:16:43.966Z,39.70
2018-12-27T11:19:12.420Z,39.50
2018-12-27T11:21:40.899Z,39.90
2018-12-27T11:24:10.370Z,40.40
2018-12-27T11:26:38.822Z,38.67
2018-12-27T11:29:07.391Z,35.03
2018-12-27T11:31:35.915Z,38.77
2018-12-27T11:34:04.505Z,36.93
2018-12-27T11:36:32.995Z,33.03
2018-12-27T11:39:01.444Z,35.20
2018-12-27T11:41:30.274Z,38.57
2018-12-27T11:43:58.785Z,37.73
2018-12-27T11:46:27.301Z,36.43
2018-12-27T11:48:55.968Z,36.90
2018-12-27T11:51:24.458Z,35.67
2018-12-27T11:53:52.912Z,37.67
2018-12-27T11:56:21.369Z,30.33
2018-12-27T11:58:49.855Z,37.87
2018-12-27T12:01:18.309Z,36.93
2018-12-27T12:03:46.765Z,36.30
2018-12-27T12:06:15.330Z,36.77
2018-12-27T12:08:43.854Z,39.53
2018-12-27T12:11:12.455Z,37.53
2018-12-27T12:13:41.021Z,37.67
2018-12-27T12:16:09.609Z,38.93
2018-12-27T12:18:38.133Z,39.43
2018-12-27T12:21:06.754Z,41.23
2018-12-27T12:23:35.211Z,34.90
2018-12-27T12:26:03.817Z,35.80
2018-12-27T12:28:32.366Z,35.67
2018-12-27T12:31:00.895Z,39.03
2018-12-27T12:33:29.349Z,42.27
2018-12-27T12:35:57.973Z,40.03
2018-12-27T12:38:26.839Z,41.10
2018-12-27T12:40:55.286Z,42.03
2018-12-27T12:43:24.086Z,43.37
2018-12-27T12:45:52.640Z,42.53
2018-12-27T12:48:21.163Z,45.13
2018-12-27T12:50:49.789Z,45.20
2018-12-27T12:53:18.256Z,35.37
2018-12-27T12:55:46.779Z,35.87
2018-12-27T12:58:15.393Z,35.23
2018-12-27T13:00:43.918Z,34.13
2018-12-27T13:03:12.443Z,34.70
2018-12-27T13:05:40.927Z,30.40
2018-12-27T13:08:09.526Z,27.73
2018-12-27T13:10:38.118Z,36.27
2018-12-27T13:13:10.746Z,38.80
2018-12-27T13:15:39.591Z,51.50
2018-12-27T13:18:08.046Z,44.83
2018-12-27T13:20:36.542Z,40.17
2018-12-27T13:23:04.997Z,45.93
2018-12-27T13:25:33.521Z,35.10
2018-12-27T13:28:02.081Z,33.30
2018-12-27T13:30:30.603Z,36.67
2018-12-27T13:32:59.053Z,31.07
2018-12-27T13:35:27.537Z,31.73
2018-12-27T13:37:56.498Z,35.13
2018-12-27T13:40:24.952Z,32.00
2018-12-27T13:42:53.511Z,33.73
2018-12-27T13:45:22.110Z,36.63
2018-12-27T13:47:50.574Z,31.93
2018-12-27T13:50:19.347Z,31.97
2018-12-27T13:52:47.867Z,32.43
2018-12-27T13:55:16.388Z,31.40
2018-12-27T13:57:44.961Z,32.10
2018-12-27T14:00:13.489Z,36.27
2018-12-27T14:02:41.948Z,34.23
2018-12-27T14:05:10.441Z,38.87
2018-12-27T14:07:38.969Z,33.93
2018-12-27T14:10:08.357Z,34.07
2018-12-27T14:12:36.852Z,31.83
2018-12-27T14:15:06.919Z,32.93
2018-12-27T14:17:35.514Z,33.30
2018-12-27T14:20:06.658Z,33.97
2018-12-27T14:22:35.109Z,31.13
2018-12-27T14:25:04.619Z,35.23
2018-12-27T14:27:33.158Z,42.07
2018-12-27T14:30:01.786Z,39.07
2018-12-27T14:32:30.241Z,41.63
2018-12-27T14:34:58.712Z,52.83
2018-12-27T14:37:27.194Z,73.13
2018-12-27T14:39:55.714Z,43.03
2018-12-27T14:42:24.204Z,38.37
2018-12-27T14:44:52.730Z,33.40
2018-12-27T14:47:21.185Z,38.80
2018-12-27T14:49:49.673Z,45.87
2018-12-27T14:52:19.866Z,60.70
2018-12-27T14:54:48.409Z,42.30
2018-12-27T14:57:17.034Z,42.30
2018-12-27T14:59:45.495Z,49.50
2018-12-27T15:02:13.964Z,65.17
2018-12-27T15:04:42.554Z,55.97
2018-12-27T15:07:11.177Z,78.17
2018-12-27T15:09:39.715Z,68.60
2018-12-27T15:12:08.390Z,45.80
2018-12-27T15:14:36.841Z,46.27
2018-12-27T15:17:05.368Z,67.17
2018-12-27T15:19:34.195Z,48.87
2018-12-27T15:22:06.977Z,57.83
2018-12-27T15:24:35.490Z,52.20
2018-12-27T15:27:04.433Z,58.77
2018-12-27T15:29:32.885Z,53.27
2018-12-27T15:32:01.411Z,49.97
2018-12-27T15:34:29.963Z,46.73
2018-12-27T15:36:58.492Z,52.43
2018-12-27T15:39:27.023Z,60.30
2018-12-27T15:41:55.514Z,52.60
2018-12-27T15:44:23.974Z,48.63
2018-12-27T15:46:52.634Z,54.13
2018-12-27T15:49:21.140Z,58.77
2018-12-27T15:51:49.606Z,52.10
2018-12-27T15:54:18.137Z,53.50
2018-12-27T15:56:46.705Z,48.33
2018-12-27T15:59:15.167Z,69.80
2018-12-27T16:01:43.699Z,168.13
2018-12-27T16:04:12.174Z,72.80
2018-12-27T16:06:40.698Z,68.70
2018-12-27T16:09:09.234Z,50.80
2018-12-27T16:11:37.729Z,54.50
2018-12-27T16:14:06.232Z,63.13
2018-12-27T16:16:34.784Z,58.10
2018-12-27T16:19:03.517Z,50.40
2018-12-27T16:21:32.229Z,58.60
2018-12-27T16:24:00.884Z,54.20
2018-12-27T16:26:29.495Z,64.97
2018-12-27T16:28:58.010Z,70.07
2018-12-27T16:31:26.530Z,72.03
2018-12-27T16:33:55.022Z,67.20
2018-12-27T16:36:23.472Z,54.70
2018-12-27T16:38:51.922Z,61.53
2018-12-27T16:41:20.800Z,53.83
2018-12-27T16:43:49.325Z,49.07
2018-12-27T16:46:17.850Z,57.93
2018-12-27T16:48:46.323Z,54.93
2018-12-27T16:51:14.770Z,49.00
2018-12-27T16:53:43.230Z,58.17
2018-12-27T16:56:11.782Z,51.20
2018-12-27T16:58:40.559Z,54.57
2018-12-27T17:01:09.148Z,54.83
2018-12-27T17:03:37.691Z,50.30
2018-12-27T17:06:06.173Z,47.57
2018-12-27T17:08:34.706Z,54.00
2018-12-27T17:11:03.262Z,57.00
2018-12-27T17:13:31.717Z,60.77
2018-12-27T17:16:00.178Z,48.07
2018-12-27T17:18:28.662Z,69.30
2018-12-27T17:20:57.119Z,78.90
2018-12-27T17:23:25.577Z,45.77
2018-12-27T17:25:54.198Z,73.17
2018-12-27T17:28:22.672Z,75.33
2018-12-27T17:30:51.617Z,100.73
2018-12-27T17:33:20.258Z,66.83
2018-12-27T17:35:48.719Z,87.27
2018-12-27T17:38:17.246Z,56.10
2018-12-27T17:40:45.823Z,61.00
2018-12-27T17:43:14.276Z,56.77
2018-12-27T17:45:42.796Z,69.70
2018-12-27T17:48:11.287Z,56.93
2018-12-27T17:50:39.741Z,63.33
2018-12-27T17:53:08.266Z,80.27
2018-12-27T17:55:36.753Z,61.03
2018-12-27T17:58:05.282Z,50.47
2018-12-27T18:00:33.744Z,64.63
2018-12-27T18:03:02.368Z,64.10
2018-12-27T18:05:30.962Z,59.83
2018-12-27T18:07:59.415Z,80.03
2018-12-27T18:10:28.064Z,65.70
2018-12-27T18:12:56.586Z,62.63
2018-12-27T18:15:25.119Z,60.23
2018-12-27T18:17:53.742Z,66.47
2018-12-27T18:20:22.308Z,54.73
2018-12-27T18:22:50.812Z,59.73
2018-12-27T18:25:19.375Z,53.50
2018-12-27T18:27:47.834Z,66.37
2018-12-27T18:30:16.359Z,71.57
2018-12-27T18:32:44.859Z,86.20
2018-12-27T18:35:13.384Z,98.70
2018-12-27T18:37:41.901Z,55.27
2018-12-27T18:40:10.396Z,85.10
2018-12-27T18:42:38.920Z,47.00
2018-12-27T18:45:08.175Z,64.37
2018-12-27T18:47:36.744Z,62.73
2018-12-27T18:50:05.934Z,60.33
2018-12-27T18:52:34.399Z,61.30
2018-12-27T18:55:03.024Z,72.13
2018-12-27T18:57:31.496Z,82.33
2018-12-27T19:00:00.032Z,81.87
2018-12-27T19:02:28.688Z,78.63
2018-12-27T19:04:57.273Z,64.90
2018-12-27T19:07:25.732Z,60.23
2018-12-27T19:09:54.295Z,69.60
2018-12-27T19:12:57.557Z,76.67
2018-12-27T19:15:26.173Z,77.13
2018-12-27T19:17:55.277Z,71.50
2018-12-27T19:20:23.806Z,56.23
2018-12-27T19:22:58.250Z,56.97
2018-12-27T19:25:26.703Z,54.10
2018-12-27T19:27:55.608Z,57.77
2018-12-27T19:30:24.225Z,51.57
2018-12-27T19:32:52.675Z,51.50
2018-12-27T19:35:21.198Z,49.53
2018-12-27T19:37:52.200Z,47.87
2018-12-27T19:40:20.009Z,42.43
2018-12-27T19:42:48.541Z,48.43
2018-12-27T19:45:17.022Z,46.20
2018-12-27T19:47:45.605Z,48.00
2018-12-27T19:50:14.380Z,44.73
2018-12-27T19:52:42.920Z,41.73
2018-12-27T19:55:11.530Z,41.57
2018-12-27T19:57:40.140Z,46.07
2018-12-27T20:00:09.215Z,47.67
2018-12-27T20:02:37.737Z,40.17
2018-12-27T20:05:06.265Z,41.00
2018-12-27T20:07:34.886Z,44.13
2018-12-27T20:10:03.935Z,40.53
2018-12-27T20:12:32.510Z,42.23
2018-12-27T20:15:00.991Z,39.77
2018-12-27T20:17:29.452Z,46.97
2018-12-27T20:19:57.959Z,38.10
2018-12-27T20:22:26.533Z,51.10
2018-12-27T20:24:54.989Z,43.83
2018-12-27T20:27:23.439Z,43.43
2018-12-27T20:29:51.911Z,39.20
2018-12-27T20:32:20.505Z,43.30
2018-12-27T20:34:48.960Z,46.33
2018-12-27T20:37:17.434Z,40.00
2018-12-27T20:39:45.950Z,40.90
2018-12-27T20:42:14.473Z,31.73
2018-12-27T20:44:42.953Z,33.57
2018-12-27T20:47:11.806Z,31.40
2018-12-27T20:49:40.317Z,31.97
2018-12-27T20:52:08.813Z,34.63
2018-12-27T20:54:37.337Z,35.50
2018-12-27T20:57:05.860Z,43.50
2018-12-27T20:59:34.350Z,39.27
2018-12-27T21:02:02.872Z,37.43
2018-12-27T21:04:31.321Z,40.13
2018-12-27T21:06:59.811Z,34.40
2018-12-27T21:09:28.336Z,37.27
2018-12-27T21:11:56.894Z,39.17
2018-12-27T21:14:25.475Z,37.40
2018-12-27T21:16:53.934Z,38.10
2018-12-27T21:19:22.831Z,40.23
2018-12-27T21:21:51.318Z,36.47
2018-12-27T21:24:19.833Z,40.00
2018-12-27T21:26:48.286Z,44.50
2018-12-27T21:29:16.841Z,34.73
2018-12-27T21:31:45.292Z,36.07
2018-12-27T21:34:13.748Z,34.10
2018-12-27T21:36:42.303Z,41.07
2018-12-27T21:39:10.760Z,33.90
2018-12-27T21:41:39.277Z,30.00
2018-12-27T21:44:07.780Z,31.03
2018-12-27T21:46:36.369Z,31.90
2018-12-27T21:49:05.435Z,32.73
2018-12-27T21:51:33.933Z,30.60
2018-12-27T21:54:02.396Z,26.50
2018-12-27T21:56:30.991Z,28.33
2018-12-27T21:58:59.530Z,24.87
2018-12-27T22:01:27.977Z,30.57
2018-12-27T22:03:56.425Z,28.10
2018-12-27T22:06:24.990Z,27.77
2018-12-27T22:08:53.444Z,32.17
2018-12-27T22:11:21.965Z,28.43
2018-12-27T22:13:50.454Z,31.10
2018-12-27T22:16:18.913Z,33.30
2018-12-27T22:18:47.360Z,28.70
2018-12-27T22:21:15.854Z,34.80
2018-12-27T22:23:44.301Z,36.77
2018-12-27T22:26:12.826Z,36.13
2018-12-27T22:28:41.316Z,35.00
2018-12-27T22:31:09.838Z,29.97
2018-12-27T22:33:38.294Z,29.50
2018-12-27T22:36:07.144Z,25.93
2018-12-27T22:38:35.891Z,30.97
2018-12-27T22:41:04.576Z,31.80
2018-12-27T22:43:33.065Z,29.23
2018-12-27T22:46:01.591Z,37.00
2018-12-27T22:48:30.224Z,28.20
2018-12-27T22:50:58.841Z,31.93
2018-12-27T22:53:27.509Z,28.40
2018-12-27T22:55:56.401Z,28.00
2018-12-27T22:58:25.137Z,26.37
2018-12-27T23:00:54.338Z,31.20
2018-12-27T23:03:22.792Z,26.70
2018-12-27T23:05:51.266Z,32.00
2018-12-27T23:08:19.881Z,28.23
2018-12-27T23:10:48.337Z,27.97
2018-12-27T23:13:16.889Z,24.17
2018-12-27T23:15:45.417Z,22.67
2018-12-27T23:18:13.941Z,27.23
2018-12-27T23:20:42.426Z,25.27
2018-12-27T23:23:10.948Z,24.53
2018-12-27T23:25:39.539Z,25.73
2018-12-27T23:28:08.165Z,27.80
2018-12-27T23:30:36.685Z,23.03
2018-12-27T23:33:05.205Z,24.77
2018-12-27T23:35:33.783Z,26.47
2018-12-27T23:38:02.228Z,27.40
2018-12-27T23:40:30.858Z,25.23
2018-12-27T23:42:59.337Z,24.53
2018-12-27T23:45:27.801Z,25.47
2018-12-27T23:47:56.438Z,26.67
2018-12-27T23:50:25.044Z,28.73
2018-12-27T23:52:53.639Z,20.67
2018-12-27T23:55:22.085Z,23.93
2018-12-27T23:57:50.569Z,20.80
